Home > Products > Valid Products > TAF

000
FTUS43 KSGF 051720
TAFJLN
TAF
KJLN 051720Z 0518/0618 34012KT P6SM SKC
     FM052300 VRB05KT P6SM SKC
     FM061500 20005KT P6SM SKC=



000
FTUS43 KSGF 051720
TAFSGF
TAF
KSGF 051720Z 0518/0618 34013G18KT P6SM SKC
     FM060000 36006KT P6SM SKC
     FM061100 17004KT P6SM SKC=



000
FTUS43 KSGF 051120
TAFJLN
TAF
KJLN 051120Z 0512/0612 00000KT P6SM SKC
     FM051500 34008KT P6SM SKC
     FM052300 01006KT P6SM SKC
     FM060300 VRB04KT P6SM SKC=



000
FTUS43 KSGF 051120
TAFSGF
TAF
KSGF 051120Z 0512/0612 VRB03KT P6SM SKC
     FM051700 34010KT P6SM SKC
     FM052300 36008KT P6SM SKC
     FM060200 VRB04KT P6SM SKC=



000
FTUS43 KSGF 051120
TAFJLN
TAF
KJLN 051120Z 0512/0612 00000KT P6SM SKC
     FM051500 34008KT P6SM SKC
     FM052300 01006KT P6SM SKC
     FM060300 VRB04KT P6SM SKC=



000
FTUS43 KSGF 051120
TAFSGF
TAF
KSGF 051120Z 0512/0612 VRB03KT P6SM SKC
     FM051700 34010KT P6SM SKC
     FM052300 36008KT P6SM SKC
     FM060200 VRB04KT P6SM SKC=



000
FTUS43 KSGF 050520
TAFSGF
TAF
KSGF 050520Z 0506/0606 32004KT P6SM SKC
     FM051600 35012G17KT P6SM SKC
     FM052200 35010KT P6SM SKC
     FM060100 VRB03KT P6SM SKC=



000
FTUS43 KSGF 050520
TAFJLN
TAF
KJLN 050520Z 0506/0606 30002KT P6SM SKC
     FM051600 35009KT P6SM SKC
     FM060100 VRB03KT P6SM SKC=



000
FTUS43 KSGF 042320
TAFJLN
TAF
KJLN 042320Z 0500/0524 35009KT P6SM SKC
     FM050200 32004KT P6SM SKC
     FM051600 34010KT P6SM SKC=



000
FTUS43 KSGF 042320
TAFSGF
TAF
KSGF 042320Z 0500/0524 35010KT P6SM SKC
     FM050200 32003KT P6SM SKC
     FM051600 34012G17KT P6SM SKC=



000
FTUS43 KSGF 042320
TAFJLN
TAF
KJLN 042320Z 0500/0524 35009KT P6SM SKC
     FM050200 32004KT P6SM SKC
     FM051600 34010KT P6SM SKC=



000
FTUS43 KSGF 042320
TAFSGF
TAF
KSGF 042320Z 0500/0524 35010KT P6SM SKC
     FM050200 32003KT P6SM SKC
     FM051600 34012G17KT P6SM SKC=



000
FTUS43 KSGF 042215 AAA
TAFJLN
TAF AMD
KJLN 042215Z 0422/0518 35012G18KT P6SM SKC
     FM050000 35007KT P6SM SKC
     FM050900 29004KT P6SM SKC=



000
FTUS43 KSGF 041720
TAFJLN
TAF
KJLN 041720Z 0418/0518 34014G23KT P6SM SKC
     FM050100 35007KT P6SM SKC
     FM050900 29004KT P6SM SKC=



000
FTUS43 KSGF 041720
TAFSGF
TAF
KSGF 041720Z 0418/0518 33016G25KT P6SM SKC
     FM050100 34009KT P6SM SKC
     FM050900 28005KT P6SM SKC=



000
FTUS43 KSGF 041120
TAFJLN
TAF
KJLN 041120Z 0412/0512 24010KT P6SM SKC
     FM041400 31012KT P6SM SKC
     FM041600 34015G23KT P6SM SKC
     FM042300 35010KT P6SM SKC
     FM050900 VRB04KT P6SM SKC=



000
FTUS43 KSGF 041120
TAFSGF
TAF
KSGF 041120Z 0412/0512 25014KT P6SM SKC
     FM041400 30015G22KT P6SM SKC
     FM041700 34015KT P6SM SKC
     FM050100 34008KT P6SM SKC
     FM050800 28005KT P6SM SKC=



000
FTUS43 KSGF 041120
TAFSGF
TAF
KSGF 041120Z 0412/0512 25014KT P6SM SKC
     FM041400 30015G22KT P6SM SKC
     FM041700 34015KT P6SM SKC
     FM050100 34008KT P6SM SKC
     FM050800 28005KT P6SM SKC=



000
FTUS43 KSGF 041120
TAFJLN
TAF
KJLN 041120Z 0412/0512 24010KT P6SM SKC
     FM041400 31012KT P6SM SKC
     FM041600 34015G23KT P6SM SKC
     FM042300 35010KT P6SM SKC
     FM050900 VRB04KT P6SM SKC=



000
FTUS43 KSGF 040520
TAFSGF
TAF
KSGF 040520Z 0406/0506 23009KT P6SM FEW080
     FM041300 28011KT P6SM SKC
     FM041500 32016G23KT P6SM SKC
     FM050030 33006KT P6SM SKC=



000
FTUS43 KSGF 040520
TAFJLN
TAF
KJLN 040520Z 0406/0506 22008KT P6SM FEW080
     FM041300 27011KT P6SM SKC
     FM041500 34013G20KT P6SM SKC
     FM050000 34006KT P6SM SKC=



000
FTUS43 KSGF 032320
TAFJLN
TAF
KJLN 032320Z 0400/0424 29005KT P6SM SCT200
     FM041400 31009KT P6SM SKC
     FM041600 34013KT P6SM SKC=



000
FTUS43 KSGF 032320
TAFJLN
TAF
KJLN 032320Z 0400/0424 29005KT P6SM SCT200
     FM041400 31009KT P6SM SKC
     FM041600 34013KT P6SM SKC=



000
FTUS43 KSGF 032320
TAFSGF
TAF
KSGF 032320Z 0400/0424 31007KT P6SM SCT200
     FM041300 28010KT P6SM FEW250
     FM041700 34014KT P6SM SKC=



000
FTUS43 KSGF 032320
TAFSGF
TAF
KSGF 032320Z 0400/0424 31007KT P6SM SCT200
     FM041300 28010KT P6SM FEW250
     FM041700 34014KT P6SM SKC=



000
FTUS43 KSGF 031720
TAFSGF
TAF
KSGF 031720Z 0318/0418 34008KT P6SM SCT035
     FM040000 30007KT P6SM SCT250
     FM041000 25012KT P6SM FEW250
     FM041700 33015KT P6SM SKC=



000
FTUS43 KSGF 031720
TAFJLN
TAF
KJLN 031720Z 0318/0418 34006KT P6SM FEW035
     FM040000 23005KT P6SM FEW250
     FM041400 29010KT P6SM SKC
     FM041700 33014KT P6SM SKC=



000
FTUS43 KSGF 031720
TAFSGF
TAF
KSGF 031720Z 0318/0418 34008KT P6SM SCT035
     FM040000 30007KT P6SM SCT250
     FM041000 25012KT P6SM FEW250
     FM041700 33015KT P6SM SKC=



000
FTUS43 KSGF 031720
TAFJLN
TAF
KJLN 031720Z 0318/0418 34006KT P6SM FEW035
     FM040000 23005KT P6SM FEW250
     FM041400 29010KT P6SM SKC
     FM041700 33014KT P6SM SKC=



000
FTUS43 KSGF 031556 AAB
TAFSGF
TAF AMD
KSGF 031556Z 0316/0412 33007G15KT P6SM SCT027
     FM040200 25008KT P6SM FEW250=



000
FTUS43 KSGF 031310 AAA
TAFJLN
TAF AMD
KJLN 031310Z 0313/0412 00000KT 3SM BR SCT001
     FM031400 00000KT P6SM FEW025 FEW250
     FM032000 32006KT P6SM SCT200
     FM040200 23008KT P6SM FEW250=



000
FTUS43 KSGF 031120
TAFSGF
TAF
KSGF 031120Z 0312/0412 VRB03KT 1/4SM FG VV002
     FM031400 00000KT P6SM SCT040
     FM031700 34008KT P6SM SCT100
     FM040200 25008KT P6SM FEW250=



000
FTUS43 KSGF 031120
TAFJLN
TAF
KJLN 031120Z 0312/0412 00000KT 1/4SM FG VV002
     FM031400 00000KT P6SM FEW025 FEW250
     FM032000 32006KT P6SM SCT200
     FM040200 23008KT P6SM FEW250=



000
FTUS43 KSGF 031100 AAD
TAFJLN
TAF AMD
KJLN 031100Z 0311/0406 00000KT 2SM BR SKC
      TEMPO 0311/0314 1/4SM FG VV002
     FM031400 31005KT P6SM SCT025
     FM031800 31007KT P6SM SCT045
     FM040100 VRB04KT P6SM FEW050=



000
FTUS43 KSGF 031100 AAD
TAFJLN
TAF AMD
KJLN 031100Z 0311/0406 00000KT 2SM BR SKC
      TEMPO 0311/0314 1/4SM FG VV002
     FM031400 31005KT P6SM SCT025
     FM031800 31007KT P6SM SCT045
     FM040100 VRB04KT P6SM FEW050=



000
FTUS43 KSGF 031040 AAD
TAFSGF
TAF AMD
KSGF 031040Z 0311/0406 00000KT 2SM BR SKC
      TEMPO 0311/0314 1/4SM FG VV002
     FM031500 31005KT P6SM SCT025
     FM031800 31008KT P6SM SCT045
     FM040100 VRB04KT P6SM FEW050=



000
FTUS43 KSGF 030839 AAC
TAFJLN
TAF AMD
KJLN 030839Z 0309/0406 00000KT 2SM BR SKC
      TEMPO 0309/0313 1/2SM FG VV002
     FM031400 31005KT P6SM SCT025
     FM031800 31007KT P6SM SCT045
     FM040100 VRB04KT P6SM FEW050=



000
FTUS43 KSGF 030839 AAC
TAFJLN
TAF AMD
KJLN 030839Z 0309/0406 00000KT 2SM BR SKC
      TEMPO 0309/0313 1/2SM FG VV002
     FM031400 31005KT P6SM SCT025
     FM031800 31007KT P6SM SCT045
     FM040100 VRB04KT P6SM FEW050=



000
FTUS43 KSGF 030731 AAC
TAFSGF
TAF AMD
KSGF 030731Z 0308/0406 VRB03KT P6SM SKC
      TEMPO 0308/0310 2SM BR BKN020
     FM031000 00000KT 4SM BR SKC
      TEMPO 0310/0314 1/2SM FG VV002
     FM031500 31005KT P6SM SCT025
     FM031800 31008KT P6SM SCT045
     FM040100 VRB04KT P6SM FEW050=



000
FTUS43 KSGF 030656 AAB
TAFJLN
TAF AMD
KJLN 030656Z 0307/0406 00000KT P6SM SKC
     FM030800 00000KT 2SM BR SKC
      TEMPO 0310/0314 1/2SM FG VV002
     FM031500 31005KT P6SM SCT025
     FM031800 31007KT P6SM SCT045
     FM040100 VRB04KT P6SM FEW050=



000
FTUS43 KSGF 030656 AAB
TAFJLN
TAF AMD
KJLN 030656Z 0307/0406 00000KT P6SM SKC
     FM030800 00000KT 2SM BR SKC
      TEMPO 0310/0314 1/2SM FG VV002
     FM031500 31005KT P6SM SCT025
     FM031800 31007KT P6SM SCT045
     FM040100 VRB04KT P6SM FEW050=



000
FTUS43 KSGF 030602 AAB
TAFSGF
TAF AMD
KSGF 030602Z 0306/0406 VRB03KT P6SM SKC
      TEMPO 0306/0308 2SM BR
     FM030800 00000KT 4SM BR SKC
      TEMPO 0310/0314 1/2SM FG VV002
     FM031500 31005KT P6SM SCT025
     FM031800 31008KT P6SM SCT045
     FM040100 VRB04KT P6SM FEW050=



000
FTUS43 KSGF 030602 AAB
TAFSGF
TAF AMD
KSGF 030602Z 0306/0406 VRB03KT P6SM SKC
      TEMPO 0306/0308 2SM BR
     FM030800 00000KT 4SM BR SKC
      TEMPO 0310/0314 1/2SM FG VV002
     FM031500 31005KT P6SM SCT025
     FM031800 31008KT P6SM SCT045
     FM040100 VRB04KT P6SM FEW050=



000
FTUS43 KSGF 030601 AAA
TAFJLN
TAF AMD
KJLN 030601Z 0306/0406 00000KT 1 1/2SM BR SKC
     FM030800 00000KT 2SM BR SKC
      TEMPO 0310/0314 1/2SM FG VV002
     FM031500 31005KT P6SM SCT025
     FM031800 31007KT P6SM SCT045
     FM040100 VRB04KT P6SM FEW050=



000
FTUS43 KSGF 030601 AAA
TAFJLN
TAF AMD
KJLN 030601Z 0306/0406 00000KT 1 1/2SM BR SKC
     FM030800 00000KT 2SM BR SKC
      TEMPO 0310/0314 1/2SM FG VV002
     FM031500 31005KT P6SM SCT025
     FM031800 31007KT P6SM SCT045
     FM040100 VRB04KT P6SM FEW050=



000
FTUS43 KSGF 030520
TAFJLN
TAF
KJLN 030520Z 0306/0406 VRB03KT P6SM SKC
     FM030800 00000KT 4SM BR SKC
      TEMPO 0310/0314 1/2SM FG VV002
     FM031500 31005KT P6SM SCT025
     FM031800 31007KT P6SM SCT045
     FM040100 VRB04KT P6SM FEW050=



000
FTUS43 KSGF 030520
TAFSGF
TAF
KSGF 030520Z 0306/0406 VRB03KT P6SM SKC
     FM030800 00000KT 4SM BR SKC
      TEMPO 0310/0314 1/2SM FG VV002
     FM031500 31005KT P6SM SCT025
     FM031800 31008KT P6SM SCT045
     FM040100 VRB04KT P6SM FEW050=



000
FTUS43 KSGF 030520
TAFJLN
TAF
KJLN 030520Z 0306/0406 VRB03KT P6SM SKC
     FM030800 00000KT 4SM BR SKC
      TEMPO 0310/0314 1/2SM FG VV002
     FM031500 31005KT P6SM SCT025
     FM031800 31007KT P6SM SCT045
     FM040100 VRB04KT P6SM FEW050=



000
FTUS43 KSGF 030520
TAFSGF
TAF
KSGF 030520Z 0306/0406 VRB03KT P6SM SKC
     FM030800 00000KT 4SM BR SKC
      TEMPO 0310/0314 1/2SM FG VV002
     FM031500 31005KT P6SM SCT025
     FM031800 31008KT P6SM SCT045
     FM040100 VRB04KT P6SM FEW050=



000
FTUS43 KSGF 022320
TAFSGF
TAF
KSGF 022320Z 0300/0324 33008KT P6SM OVC040
     FM030300 33004KT P6SM FEW040
     FM030900 VRB03KT P6SM SCT025
      TEMPO 0309/0313 3SM BR OVC025
     FM031600 33007KT P6SM SCT070=



000
FTUS43 KSGF 022320
TAFJLN
TAF
KJLN 022320Z 0300/0324 34007KT P6SM OVC040
     FM030200 34004KT P6SM SKC
     FM030800 VRB03KT 5SM BR FEW030
      TEMPO 0309/0313 3SM BR FEW030
     FM031500 31005KT P6SM SCT070=



    US Dept of Commerce
    National Oceanic and Atmospheric Administration
    National Weather Service
    1325 East West Highway
    Silver Spring, MD 20910
    Page Author: NWS Internet Services Team
Disclaimer
Information Quality
Credits
Glossary
Privacy Policy
Freedom of Information Act (FOIA)
About Us
Career Opportunities